M I D A S
Marine Information and Data Acquisition System
Tripno 1906 of the Zeeleeuw from 2010-06-23 07:12:48 to 2010-06-23 14:53:10
Back to CruiseResearch ActivitiesStationsMapUnderway DataData graphs

EquipmentUnitsComment
TimeDGPSUTC
LatitudeDGPSDM.mWGS84
LongitudeDGPSDM.mWGS84
HeadingGyrodeg 
SOGDGPSknotsSpeed over ground
COGDGPSdegCourse over ground
DepthEcho soundermeters200 kHz
Missing or incorrect values are displayed as -999
Navigation data collected by the RV Zeeleeuw from 2010-06-23 06:39:38 to 2010-06-23 14:55:23
Time Latitude Longitude Heading SOG COG Depth
2010-06-23 06:40:41 51°13.662 2°55.963 126.3 0.1 354 6
2010-06-23 06:41:42 51°13.662 2°55.963 125.9 -999 209 6
2010-06-23 06:42:41 51°13.662 2°55.962 125.8 -999 193 6.1
2010-06-23 06:43:41 51°13.661 2°55.962 126.5 -999 203 6.1
2010-06-23 06:44:42 51°13.662 2°55.962 126.3 -999 339 6.1
2010-06-23 06:45:41 51°13.661 2°55.961 126 0.1 208 6.1
2010-06-23 06:46:42 51°13.661 2°55.961 125.6 -999 234 6.1
2010-06-23 06:47:41 51°13.661 2°55.961 125.6 -999 311 6.1
2010-06-23 06:48:41 51°13.661 2°55.961 125.6 -999 80 6.1
2010-06-23 06:49:41 51°13.661 2°55.961 125.7 -999 315 6.1
2010-06-23 06:50:41 51°13.662 2°55.962 127.9 0.1 19 6.2
2010-06-23 06:51:42 51°13.662 2°55.962 127.9 0.1 20 6.2
2010-06-23 06:52:42 51°13.661 2°55.962 125.4 0.1 191 6.2
2010-06-23 06:53:42 51°13.66 2°55.959 115 0.5 292 6.3
2010-06-23 06:54:45 51°13.677 2°55.903 111 3.3 291 -999
2010-06-23 06:55:45 51°13.694 2°55.803 98.5 4 280 -999
2010-06-23 06:56:44 51°13.697 2°55.728 82 1.2 271 13.3
2010-06-23 06:57:43 51°13.719 2°55.742 18.2 1.9 13 13.7
2010-06-23 06:58:44 51°13.719 2°55.744 353.6 0.2 345 -999
2010-06-23 06:59:43 51°13.752 2°55.713 326.6 4 325 11.9
2010-06-23 07:00:42 51°13.821 2°55.647 337.5 5.2 338 12.3
2010-06-23 07:01:41 51°13.891 2°55.634 4.4 3.6 2 10.4
2010-06-23 07:02:41 51°13.944 2°55.639 355.9 2.1 354 12.1
2010-06-23 07:03:41 51°13.968 2°55.629 331.8 1.3 338 11.9
2010-06-23 07:04:41 51°13.986 2°55.616 325 0.8 333 11.4
2010-06-23 07:05:41 51°13.995 2°55.608 319.3 0.4 328 11.2
2010-06-23 07:06:42 51°14 2°55.603 317.5 0.2 340 11.2
2010-06-23 07:07:41 51°14.002 2°55.604 321.1 0.1 9 11.3
2010-06-23 07:08:41 51°14.028 2°55.569 317.5 4.4 315 11.1
2010-06-23 07:09:41 51°14.103 2°55.458 326.5 7 325 11.5
2010-06-23 07:10:42 51°14.206 2°55.353 330.9 7.2 328 11.4
2010-06-23 07:11:41 51°14.324 2°55.241 331.8 10.4 329 11.2
2010-06-23 07:12:41 51°14.482 2°55.077 328.7 11.7 327 11.4
2010-06-23 07:13:41 51°14.648 2°54.904 330.4 12 328 12.4
2010-06-23 07:14:41 51°14.816 2°54.728 329.5 12.6 327 12.2
2010-06-23 07:15:41 51°14.993 2°54.531 326 13.1 322 10.4
2010-06-23 07:16:41 51°15.169 2°54.323 326 13.2 323 10.6
2010-06-23 07:17:41 51°15.345 2°54.111 326.5 13.3 324 10.9
2010-06-23 07:18:41 51°15.517 2°53.89 324 13.2 321 11.4
2010-06-23 07:19:41 51°15.687 2°53.669 324.5 13.1 321 11.7
2010-06-23 07:20:40 51°15.854 2°53.452 323.8 13.1 321 12.5
2010-06-23 07:21:41 51°16.027 2°53.233 324.5 13.1 322 12.4
2010-06-23 07:22:41 51°16.215 2°53.057 335.4 13.1 334 12.7
2010-06-23 07:23:40 51°16.414 2°52.927 340.3 13.1 338 12.6
2010-06-23 07:24:41 51°16.617 2°52.784 336.8 13.1 335 12.3
2010-06-23 07:25:41 51°16.813 2°52.635 336.9 13 335 10.8
2010-06-23 07:26:41 51°17.008 2°52.484 336.5 13 334 10.6
2010-06-23 07:27:41 51°17.203 2°52.332 336.2 13.1 334 11.2
2010-06-23 07:28:41 51°17.399 2°52.179 336.2 13.1 334 12.2
2010-06-23 07:29:41 51°17.594 2°52.028 336.8 13 334 12.1
2010-06-23 07:30:41 51°17.788 2°51.878 336.3 13 334 11.2
2010-06-23 07:31:41 51°17.983 2°51.73 336.5 13 335 11.4
2010-06-23 07:32:41 51°18.177 2°51.578 336.3 13 334 12.9
2010-06-23 07:33:41 51°18.363 2°51.402 328.6 13 326 13.6
2010-06-23 07:34:41 51°18.544 2°51.211 328.8 13 327 14.9
2010-06-23 07:35:41 51°18.725 2°51.02 329 13.1 327 15.5
2010-06-23 07:36:41 51°18.908 2°50.831 329.2 13.1 327 15.9
2010-06-23 07:37:41 51°19.092 2°50.641 329.3 13.1 329 15.5
2010-06-23 07:38:40 51°19.274 2°50.461 329.1 13.1 329 14
2010-06-23 07:39:41 51°19.459 2°50.27 326 13 323 13
2010-06-23 07:40:41 51°19.631 2°50.059 323.8 13.1 322 14.9
2010-06-23 07:41:41 51°19.803 2°49.845 323.8 13.1 322 16.4
2010-06-23 07:42:41 51°19.977 2°49.633 323.8 13.2 323 18.9
2010-06-23 07:43:41 51°20.152 2°49.419 324.4 13.3 323 21.8
2010-06-23 07:44:40 51°20.326 2°49.206 324 13.4 322 23.7
2010-06-23 07:45:41 51°20.508 2°48.988 324.5 13.5 323 23.9
2010-06-23 07:46:41 51°20.688 2°48.772 324 13.5 324 23.5
2010-06-23 07:47:40 51°20.865 2°48.564 323.9 13.4 324 22.3
2010-06-23 07:48:41 51°21.046 2°48.355 324.5 13.1 325 21.5
2010-06-23 07:49:40 51°21.219 2°48.154 324 13.2 324 22.6
2010-06-23 07:50:40 51°21.397 2°47.95 324.2 13.1 324 23.1
2010-06-23 07:51:40 51°21.579 2°47.761 329.2 13.1 330 24.8
2010-06-23 07:52:40 51°21.769 2°47.587 329.5 13.1 331 25.5
2010-06-23 07:53:40 51°21.958 2°47.412 329.3 13.1 330 25.8
2010-06-23 07:54:40 51°22.146 2°47.233 328.2 13.1 325 24.3
2010-06-23 07:55:40 51°22.321 2°47.027 322.4 13.1 322 20.5
2010-06-23 07:56:40 51°22.495 2°46.816 322.6 13.1 323 21.6
2010-06-23 07:57:40 51°22.669 2°46.607 323.4 13 324 18.9
2010-06-23 07:58:40 51°22.839 2°46.39 318.9 13.1 319 22.2
2010-06-23 07:59:41 51°23.006 2°46.154 319.1 13.2 318 26.4
2010-06-23 08:00:41 51°23.171 2°45.922 319.4 13.2 319 27.5
2010-06-23 08:01:41 51°23.336 2°45.688 319.2 13.3 319 27.5
2010-06-23 08:02:41 51°23.502 2°45.454 319.3 13.2 320 28.8
2010-06-23 08:03:41 51°23.668 2°45.227 319.1 13.1 319 28.4
2010-06-23 08:04:41 51°23.835 2°45 319.3 13.2 320 27.8
2010-06-23 08:05:41 51°24.002 2°44.773 319.3 13.2 320 28.2
2010-06-23 08:06:40 51°24.166 2°44.548 319 13.2 320 28
2010-06-23 08:07:40 51°24.369 2°44.492 21.3 13.4 29 28.2
2010-06-23 08:08:40 51°24.477 2°44.801 75.2 14 75 28.6
2010-06-23 08:09:40 51°24.532 2°45.164 78.4 14 75 25.2
2010-06-23 08:10:40 51°24.603 2°45.521 73.4 14 72 26.1
2010-06-23 08:11:40 51°24.688 2°45.868 64.7 14 64 26.6
2010-06-23 08:12:40 51°24.799 2°46.198 63 14.1 62 26.3
2010-06-23 08:13:40 51°24.909 2°46.531 63.8 14.2 62 26.3
2010-06-23 08:14:40 51°25.017 2°46.866 63.4 14.2 63 26.5
2010-06-23 08:15:40 51°25.124 2°47.203 63.7 14.2 64 26.3
2010-06-23 08:16:40 51°25.231 2°47.539 64.6 14.1 63 27.6
2010-06-23 08:17:40 51°25.348 2°47.865 58.6 14.1 59 28.4
2010-06-23 08:18:40 51°25.473 2°48.181 58.7 14.1 58 28.2
2010-06-23 08:19:40 51°25.599 2°48.498 59 14.2 58 25.7
2010-06-23 08:20:41 51°25.726 2°48.823 58.9 14.2 58 25.9
2010-06-23 08:21:41 51°25.851 2°49.145 59 14.2 59 25.8
2010-06-23 08:22:41 51°25.975 2°49.468 59 14.2 58 25
2010-06-23 08:23:41 51°26.1 2°49.791 58.7 14.2 58 25.1
2010-06-23 08:24:41 51°26.225 2°50.114 59.4 14.3 59 25.2
2010-06-23 08:25:41 51°26.348 2°50.438 59.6 14.3 59 25.2
2010-06-23 08:26:41 51°26.473 2°50.762 59.2 14.3 58 25.1
2010-06-23 08:27:41 51°26.597 2°51.087 59.4 14.2 58 27.6
2010-06-23 08:28:41 51°26.721 2°51.409 59 14.3 58 25.6
2010-06-23 08:29:41 51°26.845 2°51.732 59.4 14.2 59 27
2010-06-23 08:30:40 51°26.966 2°52.05 59.1 14.2 59 25.7
2010-06-23 08:31:40 51°27.089 2°52.373 59 14.2 59 23.4
2010-06-23 08:32:40 51°27.213 2°52.694 59.4 14.1 59 21.5
2010-06-23 08:33:40 51°27.335 2°53.016 59.1 14.1 58 24.7
2010-06-23 08:34:40 51°27.459 2°53.334 59.3 14.1 58 25.4
2010-06-23 08:35:40 51°27.583 2°53.652 59.2 14.1 57 25.6
2010-06-23 08:36:40 51°27.706 2°53.972 59.6 14.1 59 23.7
2010-06-23 08:37:40 51°27.828 2°54.292 59.3 14.1 58 24.8
2010-06-23 08:38:40 51°27.952 2°54.611 59.1 14 58 23.9
2010-06-23 08:39:40 51°28.076 2°54.931 59.2 14.1 59 24.1
2010-06-23 08:40:40 51°28.201 2°55.25 59 14.1 58 25.5
2010-06-23 08:41:40 51°28.326 2°55.572 59.3 14.2 58 27.2
2010-06-23 08:42:40 51°28.453 2°55.894 59.3 14.3 57 27.1
2010-06-23 08:43:40 51°28.58 2°56.219 59.3 14.4 58 27.4
2010-06-23 08:44:40 51°28.706 2°56.545 59.7 14.4 59 28.3
2010-06-23 08:45:40 51°28.833 2°56.873 59.6 14.5 58 25.8
2010-06-23 08:46:40 51°28.961 2°57.2 59.9 14.4 59 27.6
2010-06-23 08:47:40 51°29.084 2°57.531 60.2 14.5 60 27.8
2010-06-23 08:48:40 51°29.208 2°57.864 60.1 14.5 60 27.3
2010-06-23 08:49:40 51°29.333 2°58.197 60.3 14.5 59 28
2010-06-23 08:50:41 51°29.459 2°58.535 60.8 14.5 59 28.6
2010-06-23 08:51:41 51°29.583 2°58.869 60.3 14.6 60 27.4
2010-06-23 08:52:41 51°29.707 2°59.202 60.3 14.5 59 28.6
2010-06-23 08:53:41 51°29.832 2°59.535 60.7 14.6 59 28.7
2010-06-23 08:54:41 51°29.958 2°59.87 59.7 14.7 59 27.7
2010-06-23 08:55:41 51°30.084 3°0.208 60.1 14.8 59 28.9
2010-06-23 08:56:41 51°30.21 3°0.548 60.7 14.7 59 29.7
2010-06-23 08:57:41 51°30.327 3°0.864 61 11.3 59 29.5
2010-06-23 08:58:41 51°30.406 3°1.076 60.8 7.8 61 29.3
2010-06-23 08:59:41 51°30.443 3°1.221 78.7 4.9 73 29.7
2010-06-23 09:00:41 51°30.458 3°1.328 93.3 3.6 80 29.6
2010-06-23 09:01:41 51°30.465 3°1.413 105.1 2.9 84 29.8
2010-06-23 09:02:41 51°30.47 3°1.485 112.3 2.5 85 29.6
2010-06-23 09:03:41 51°30.474 3°1.548 115.5 2.3 84 29.7
2010-06-23 09:04:41 51°30.479 3°1.604 117.1 2.1 80 29.7
2010-06-23 09:05:41 51°30.484 3°1.657 118.5 1.9 79 29.8
2010-06-23 09:06:41 51°30.491 3°1.707 119.7 1.9 76 29.9
2010-06-23 09:07:41 51°30.5 3°1.754 119.8 1.8 73 30
2010-06-23 09:08:41 51°30.508 3°1.799 120.4 1.8 72 30.1
2010-06-23 09:09:41 51°30.518 3°1.843 122.1 1.7 72 30
2010-06-23 09:10:41 51°30.527 3°1.884 130 1.5 66 29.9
2010-06-23 09:11:41 51°30.538 3°1.92 142.3 1.4 65 30
2010-06-23 09:12:41 51°30.549 3°1.955 151.6 1.5 61 30
2010-06-23 09:13:40 51°30.562 3°1.99 153.8 1.6 61 30.1
2010-06-23 09:14:40 51°30.575 3°2.027 152.7 1.6 61 30.2
2010-06-23 09:15:40 51°30.589 3°2.065 149.5 1.6 61 30.2
2010-06-23 09:16:40 51°30.602 3°2.104 145.9 1.7 60 30.2
2010-06-23 09:17:40 51°30.616 3°2.144 143 1.7 62 30.2
2010-06-23 09:18:40 51°30.629 3°2.185 142.2 1.8 66 30.2
2010-06-23 09:19:40 51°30.632 3°2.266 98.2 4.9 83 30.1
2010-06-23 09:20:40 51°30.697 3°2.432 44.4 10.9 46 30
2010-06-23 09:21:40 51°30.839 3°2.707 56.6 14.5 57 29.9
2010-06-23 09:22:40 51°30.973 3°3.036 57.9 14.8 56 30
2010-06-23 09:23:40 51°31.108 3°3.364 57.5 14.7 56 30.5
2010-06-23 09:24:40 51°31.243 3°3.69 57.5 14.7 57 30.8
2010-06-23 09:25:40 51°31.378 3°4.018 57.7 14.7 56 30.2
2010-06-23 09:26:40 51°31.513 3°4.346 57.4 14.8 57 30
2010-06-23 09:27:40 51°31.648 3°4.675 57.4 14.7 56 30.7
2010-06-23 09:28:40 51°31.782 3°5.003 57.7 14.7 56 30.4
2010-06-23 09:29:40 51°31.928 3°5.317 52.3 14.6 48 30
2010-06-23 09:30:40 51°32.136 3°5.443 351.7 12.9 350 30.9
2010-06-23 09:31:40 51°32.291 3°5.24 305.8 12.4 310 30.2
2010-06-23 09:32:40 51°32.422 3°4.98 304.2 12.5 309 30.8
2010-06-23 09:33:40 51°32.555 3°4.721 304.3 12.6 309 32.6
2010-06-23 09:34:40 51°32.692 3°4.466 307.1 12.7 312 34.8
2010-06-23 09:35:40 51°32.832 3°4.214 307.2 12.6 311 32.7
2010-06-23 09:36:40 51°32.968 3°3.961 307.2 12.5 310 27.4
2010-06-23 09:37:40 51°33.105 3°3.709 307.4 12.5 312 23.3
2010-06-23 09:38:40 51°33.242 3°3.458 307 12.4 310 22.8
2010-06-23 09:39:40 51°33.321 3°3.185 262.9 10.8 258 23.7
2010-06-23 09:40:40 51°33.225 3°2.928 237.3 11.5 236 23.9
2010-06-23 09:41:40 51°33.119 3°2.668 238.1 11.7 236 25
2010-06-23 09:42:40 51°33.014 3°2.407 238.2 11.7 238 23.1
2010-06-23 09:43:40 51°32.91 3°2.145 237.5 11.6 237 24.9
2010-06-23 09:44:40 51°32.807 3°1.884 237.8 11.6 236 25.1
2010-06-23 09:45:40 51°32.703 3°1.624 237.6 11.5 238 26.7
2010-06-23 09:46:40 51°32.6 3°1.366 238 11.5 237 27.3
2010-06-23 09:47:40 51°32.497 3°1.107 238.7 11.4 239 27.2
2010-06-23 09:48:40 51°32.396 3°0.847 238.8 11.4 239 27.6
2010-06-23 09:49:40 51°32.295 3°0.587 238.3 11.4 238 27.9
2010-06-23 09:50:40 51°32.197 3°0.328 238.9 11.2 237 29.3
2010-06-23 09:51:41 51°32.096 3°0.068 237.9 11.4 239 29.7
2010-06-23 09:52:41 51°31.995 2°59.81 238.5 11.3 239 29.5
2010-06-23 09:53:41 51°31.897 2°59.556 238.1 11.3 238 30.2
2010-06-23 09:54:41 51°31.797 2°59.3 238.3 11.4 237 30.5
2010-06-23 09:55:41 51°31.697 2°59.044 238 11.3 238 31.7
2010-06-23 09:56:41 51°31.606 2°58.784 242 11.3 243 31.9
2010-06-23 09:57:41 51°31.517 2°58.518 241.7 11.3 242 32.2
2010-06-23 09:58:41 51°31.427 2°58.254 241.8 11.3 242 32.4
2010-06-23 09:59:41 51°31.337 2°57.988 241.3 11.4 241 31.5
2010-06-23 10:00:41 51°31.246 2°57.722 241.5 11.4 241 32.2
2010-06-23 10:01:41 51°31.155 2°57.456 241.3 11.4 241 32.4
2010-06-23 10:02:41 51°31.065 2°57.189 241.1 11.4 241 33
2010-06-23 10:03:41 51°30.974 2°56.923 241.5 11.3 241 33.3
2010-06-23 10:04:41 51°30.882 2°56.658 240.8 11.4 241 34.7
2010-06-23 10:05:41 51°30.79 2°56.391 240.7 11.4 241 34.1
2010-06-23 10:06:40 51°30.7 2°56.129 241.2 11.5 241 35.7
2010-06-23 10:07:41 51°30.606 2°55.858 241.1 11.4 241 35.3
2010-06-23 10:08:40 51°30.516 2°55.596 241.3 11.4 242 37.3
2010-06-23 10:09:41 51°30.423 2°55.324 241.3 11.5 241 38
2010-06-23 10:10:41 51°30.332 2°55.056 241.6 11.4 241 37.6
2010-06-23 10:11:41 51°30.242 2°54.787 241.8 11.4 240 36.6
2010-06-23 10:12:41 51°30.15 2°54.52 240.9 11.5 242 35.3
2010-06-23 10:13:41 51°30.058 2°54.25 240.6 11.5 241 34.7
2010-06-23 10:14:40 51°29.968 2°53.984 241.1 11.5 241 33.2
2010-06-23 10:15:41 51°29.875 2°53.711 241.6 11.4 242 34.3
2010-06-23 10:16:41 51°29.785 2°53.441 241.6 11.4 241 33.8
2010-06-23 10:17:41 51°29.694 2°53.171 241.2 11.5 241 34.1
2010-06-23 10:18:41 51°29.602 2°52.899 241.1 11.6 242 32.9
2010-06-23 10:19:41 51°29.512 2°52.625 241 11.5 243 33.1
2010-06-23 10:20:41 51°29.422 2°52.353 241 11.5 242 32.3
2010-06-23 10:21:41 51°29.333 2°52.082 241.4 11.5 242 31.9
2010-06-23 10:22:40 51°29.246 2°51.813 241.2 11.5 243 32.2
2010-06-23 10:23:40 51°29.157 2°51.542 241.4 11.5 243 30.2
2010-06-23 10:24:41 51°29.067 2°51.267 241.3 11.5 242 31.7
2010-06-23 10:25:41 51°28.98 2°50.996 241.1 11.5 243 30.2
2010-06-23 10:26:41 51°28.893 2°50.725 240.8 11.5 244 29.7
2010-06-23 10:27:40 51°28.807 2°50.458 240.7 11.5 242 28.4
2010-06-23 10:28:40 51°28.72 2°50.187 241.2 11.4 244 27.8
2010-06-23 10:29:41 51°28.634 2°49.909 241.5 11.4 245 28.9
2010-06-23 10:30:41 51°28.549 2°49.637 241.6 11.4 244 31.5
2010-06-23 10:31:41 51°28.465 2°49.363 241.6 11.4 244 31
2010-06-23 10:32:41 51°28.38 2°49.091 240.9 11.4 244 34.7
2010-06-23 10:33:41 51°28.295 2°48.818 241.4 11.5 244 29.1
2010-06-23 10:34:41 51°28.211 2°48.546 241.3 11.4 242 28.1
2010-06-23 10:35:41 51°28.129 2°48.272 241.2 11.4 244 33
2010-06-23 10:36:41 51°28.045 2°47.997 241.2 11.5 243 32.3
2010-06-23 10:37:41 51°27.962 2°47.721 241.5 11.4 245 31.4
2010-06-23 10:38:41 51°27.879 2°47.445 240.8 11.5 243 33
2010-06-23 10:39:41 51°27.796 2°47.17 241.2 11.5 245 35.1
2010-06-23 10:40:41 51°27.713 2°46.895 240.9 11.4 244 33.4
2010-06-23 10:41:40 51°27.631 2°46.626 241.2 11.4 244 32.8
2010-06-23 10:42:41 51°27.548 2°46.35 241.3 11.4 243 31.4
2010-06-23 10:43:41 51°27.465 2°46.08 241.3 11.2 244 30.9
2010-06-23 10:44:40 51°27.379 2°45.823 236.4 11 238 30.6
2010-06-23 10:45:41 51°27.258 2°45.597 227.6 11.1 227 30.4
2010-06-23 10:46:40 51°27.138 2°45.384 228.2 11 228 30.2
2010-06-23 10:47:40 51°27.017 2°45.163 229.1 11 228 30.5
2010-06-23 10:48:40 51°26.896 2°44.942 228.8 11 229 30.4
2010-06-23 10:49:41 51°26.773 2°44.716 229.2 11.1 229 29.7
2010-06-23 10:50:41 51°26.652 2°44.493 229 11.1 229 29.7
2010-06-23 10:51:41 51°26.548 2°44.25 235.7 11.1 236 28.2
2010-06-23 10:52:40 51°26.448 2°44.005 235.9 11.2 236 28.7
2010-06-23 10:53:41 51°26.35 2°43.747 243.6 11.2 249 27.1
2010-06-23 10:54:41 51°26.336 2°43.446 266 11.5 271 25
2010-06-23 10:55:41 51°26.407 2°43.17 314.2 12.8 328 26.1
2010-06-23 10:56:41 51°26.604 2°43.01 324.7 13.4 331 24.1
2010-06-23 10:57:41 51°26.802 2°42.841 326 13.4 331 31.3
2010-06-23 10:58:41 51°27 2°42.673 326 13.4 333 33.2
2010-06-23 10:59:41 51°27.2 2°42.507 326.6 13.6 333 33.4
2010-06-23 11:00:41 51°27.401 2°42.342 326 13.6 333 32.4
2010-06-23 11:01:41 51°27.602 2°42.178 325.8 13.5 334 32.5
2010-06-23 11:02:41 51°27.819 2°42.126 12.3 14.5 23 32.9
2010-06-23 11:03:41 51°27.998 2°42.4 54.2 15.2 54 32.3
2010-06-23 11:04:41 51°28.131 2°42.746 66.2 15.2 62 32
2010-06-23 11:05:41 51°28.238 2°43.113 69 15.2 65 33.4
2010-06-23 11:06:41 51°28.344 2°43.481 69.4 15.1 66 32.9
2010-06-23 11:07:41 51°28.45 2°43.847 69.3 15.1 65 32.6
2010-06-23 11:08:41 51°28.555 2°44.214 68.9 15.1 65 29.1
2010-06-23 11:09:40 51°28.656 2°44.575 69.5 15.2 66 29.3
2010-06-23 11:10:40 51°28.761 2°44.942 68.7 15.1 66 27.6
2010-06-23 11:11:41 51°28.867 2°45.316 69 15.2 65 28.7
2010-06-23 11:12:41 51°28.971 2°45.685 69.1 15.2 66 26.3
2010-06-23 11:13:41 51°29.074 2°46.056 69 15.3 67 25.3
2010-06-23 11:14:41 51°29.188 2°46.417 59.9 15.2 56 28.4
2010-06-23 11:15:41 51°29.345 2°46.738 52.3 15.3 52 27.4
2010-06-23 11:16:41 51°29.481 2°47.077 66.6 15.1 65 24.5
2010-06-23 11:17:41 51°29.584 2°47.447 70.6 15.2 66 23.6
2010-06-23 11:18:41 51°29.689 2°47.82 69.9 15.3 66 26.4
2010-06-23 11:19:41 51°29.795 2°48.194 69.6 15.5 66 23.1
2010-06-23 11:20:41 51°29.903 2°48.566 69 15.4 63 25.6
2010-06-23 11:21:41 51°29.985 2°48.947 79.9 15.1 74 23
2010-06-23 11:22:40 51°30.049 2°49.329 80.1 15.1 75 25
2010-06-23 11:23:41 51°30.119 2°49.724 80.1 15.1 72 22.8
2010-06-23 11:24:40 51°30.194 2°50.099 72.6 15.1 68 24.4
2010-06-23 11:25:41 51°30.305 2°50.467 68.3 15.1 64 24.1
2010-06-23 11:26:41 51°30.411 2°50.829 68.6 14.9 65 22.6
2010-06-23 11:27:41 51°30.536 2°51.172 58.8 14.9 56 22.4
2010-06-23 11:28:41 51°30.681 2°51.497 58.2 15 53 22.5
2010-06-23 11:29:41 51°30.822 2°51.823 58.8 14.8 55 22.4
2010-06-23 11:30:41 51°30.963 2°52.147 58.5 14.7 55 22
2010-06-23 11:31:41 51°31.102 2°52.472 59.5 14.8 56 22.3
2010-06-23 11:32:41 51°31.242 2°52.797 58.5 14.7 55 22.2
2010-06-23 11:33:40 51°31.378 2°53.115 59.8 14.7 56 22
2010-06-23 11:34:41 51°31.521 2°53.444 59.3 14.7 56 22.9
2010-06-23 11:35:41 51°31.654 2°53.773 63.5 14.8 60 23.1
2010-06-23 11:36:41 51°31.774 2°54.117 65.1 14.7 61 22
2010-06-23 11:37:40 51°31.893 2°54.453 64.5 14.7 60 23.1
2010-06-23 11:38:41 51°32.016 2°54.8 64.7 14.7 61 22.9
2010-06-23 11:39:41 51°32.138 2°55.139 64.3 14.8 60 21.5
2010-06-23 11:40:40 51°32.258 2°55.474 64.1 14.7 61 23.2
2010-06-23 11:41:41 51°32.386 2°55.816 61.8 14.7 55 24.6
2010-06-23 11:42:41 51°32.534 2°56.128 53.6 14.7 52 24.8
2010-06-23 11:43:40 51°32.694 2°56.419 50.6 14.7 49 25.3
2010-06-23 11:44:41 51°32.845 2°56.736 62.7 14.7 59 25.5
2010-06-23 11:45:41 51°32.965 2°57.077 64.9 14.7 61 24.6
2010-06-23 11:46:41 51°33.085 2°57.418 64.7 14.7 61 21.8
2010-06-23 11:47:41 51°33.207 2°57.757 64.5 14.7 59 22.4
2010-06-23 11:48:40 51°33.326 2°58.091 65.1 14.7 61 20.6
2010-06-23 11:49:40 51°33.45 2°58.43 64.2 14.7 60 22.1
2010-06-23 11:50:40 51°33.573 2°58.767 64.4 14.6 60 20.1
2010-06-23 11:51:41 51°33.697 2°59.11 64 14.6 59 20.3
2010-06-23 11:52:40 51°33.818 2°59.443 65 14.7 60 20.2
2010-06-23 11:53:41 51°33.944 2°59.784 64.3 14.5 60 18.8
2010-06-23 11:54:40 51°34.065 3°0.113 64.5 14.5 59 16.3
2010-06-23 11:55:41 51°34.191 3°0.452 64 14.5 59 16.4
2010-06-23 11:56:40 51°34.313 3°0.78 64.2 14.5 58 15
2010-06-23 11:57:41 51°34.44 3°1.117 64.1 14.6 58 16.4
2010-06-23 11:58:40 51°34.563 3°1.445 65.1 14.6 58 18.3
2010-06-23 11:59:40 51°34.752 3°1.648 10.5 14.3 10 19.6
2010-06-23 12:00:40 51°34.99 3°1.632 349.2 13.9 341 20.1
2010-06-23 12:01:41 51°35.142 3°1.37 300.6 13.4 303 21.6
2010-06-23 12:02:41 51°35.235 3°1.049 287.6 13.2 292 25.6
2010-06-23 12:03:40 51°35.314 3°0.73 288 13 293 23.9
2010-06-23 12:04:41 51°35.412 3°0.41 294 13.2 298 27.7
2010-06-23 12:05:40 51°35.513 3°0.105 294 13.1 298 32.2
2010-06-23 12:06:41 51°35.62 2°59.789 294.4 13.2 298 33.2
2010-06-23 12:07:40 51°35.722 2°59.486 294.3 13.1 299 30.4
2010-06-23 12:08:41 51°35.826 2°59.172 294.3 13 297 34.6
2010-06-23 12:09:40 51°35.791 2°58.878 243.4 12 245 30.8
2010-06-23 12:10:41 51°35.697 2°58.586 240.6 12.2 242 32.7
2010-06-23 12:11:41 51°35.602 2°58.298 241.1 12.2 242 36.8
2010-06-23 12:12:40 51°35.508 2°58.015 240.9 12.2 242 36
2010-06-23 12:13:41 51°35.412 2°57.721 241.3 12.2 242 32.4
2010-06-23 12:14:41 51°35.319 2°57.435 240.8 12.1 242 35.3
2010-06-23 12:15:41 51°35.22 2°57.155 238.4 12 241 35.8
2010-06-23 12:16:40 51°35.119 2°56.888 237.8 11.9 239 35.5
2010-06-23 12:17:41 51°35.015 2°56.611 238.3 11.9 240 35.8
2010-06-23 12:18:40 51°34.915 2°56.344 237.9 11.9 239 35.2
2010-06-23 12:19:41 51°34.811 2°56.066 238.5 11.9 240 33.2
2010-06-23 12:20:41 51°34.707 2°55.792 238.2 12 239 34.6
2010-06-23 12:21:41 51°34.605 2°55.517 238.2 12 240 32
2010-06-23 12:22:41 51°34.502 2°55.243 238.3 12 239 31.9
2010-06-23 12:23:41 51°34.399 2°54.967 237.9 12 238 31.4
2010-06-23 12:24:41 51°34.296 2°54.692 237.9 12.1 240 31.5
2010-06-23 12:25:40 51°34.193 2°54.42 238.1 12.1 238 31.6
2010-06-23 12:26:41 51°34.088 2°54.138 238.5 12.1 239 32.7
2010-06-23 12:27:40 51°33.984 2°53.864 238.1 12.1 239 31.7
2010-06-23 12:28:40 51°33.881 2°53.585 237.9 12.2 240 32.7
2010-06-23 12:29:40 51°33.779 2°53.306 238.5 12.2 240 32.9
2010-06-23 12:30:40 51°33.684 2°53.019 240.1 12.2 241 33.3
2010-06-23 12:31:41 51°33.575 2°52.739 234.6 12.1 235 33
2010-06-23 12:32:40 51°33.464 2°52.471 234.7 12.3 236 33.3
2010-06-23 12:33:41 51°33.349 2°52.192 235 12.4 237 33
2010-06-23 12:34:41 51°33.234 2°51.917 233.5 12.5 235 32.5
2010-06-23 12:35:41 51°33.112 2°51.653 233 12.2 236 32.9
2010-06-23 12:36:40 51°33.003 2°51.39 235.2 12.1 239 32.5
2010-06-23 12:37:41 51°32.895 2°51.114 238.1 11.9 240 34
2010-06-23 12:38:40 51°32.802 2°50.839 239.7 12 242 34.6
2010-06-23 12:39:40 51°32.706 2°50.56 239.4 11.9 240 33.5
2010-06-23 12:40:41 51°32.607 2°50.276 239.6 12 241 33.1
2010-06-23 12:41:40 51°32.512 2°50.001 239.7 12 241 31.2
2010-06-23 12:42:41 51°32.413 2°49.716 239.4 12 240 29.4
2010-06-23 12:43:40 51°32.317 2°49.442 239.3 11.9 241 32.1
2010-06-23 12:44:41 51°32.218 2°49.159 239.4 12 242 32.3
2010-06-23 12:45:40 51°32.123 2°48.885 239.6 11.9 241 34.3
2010-06-23 12:46:41 51°32.024 2°48.603 239.6 12 240 33.2
2010-06-23 12:47:40 51°31.93 2°48.329 239.2 12 242 33.1
2010-06-23 12:48:41 51°31.831 2°48.045 239.1 12 241 32.1
2010-06-23 12:49:40 51°31.737 2°47.77 239.5 12 241 33
2010-06-23 12:50:41 51°31.638 2°47.483 239.4 12.1 242 29.1
2010-06-23 12:51:41 51°31.541 2°47.2 239 12.1 241 29.7
2010-06-23 12:52:40 51°31.446 2°46.921 239.2 12.1 242 29.9
2010-06-23 12:53:40 51°31.349 2°46.635 239.1 12.1 241 28.6
2010-06-23 12:54:40 51°31.251 2°46.348 239.7 12.2 242 32.5
2010-06-23 12:55:40 51°31.153 2°46.06 238.9 12.3 241 33.4
2010-06-23 12:56:40 51°31.055 2°45.771 239.2 12.3 240 32.3
2010-06-23 12:57:41 51°30.953 2°45.476 239.5 12.4 241 33.6
2010-06-23 12:58:40 51°30.852 2°45.194 237.4 12.3 239 34.5
2010-06-23 12:59:40 51°30.749 2°44.914 239.3 12.2 241 35.7
2010-06-23 13:00:41 51°30.649 2°44.625 239.2 12.2 241 33.8
2010-06-23 13:01:40 51°30.553 2°44.347 238.8 12.1 241 31.7
2010-06-23 13:02:40 51°30.451 2°44.071 236.7 12 239 33.6
2010-06-23 13:03:41 51°30.346 2°43.792 237.4 12 240 32.3
2010-06-23 13:04:41 51°30.242 2°43.516 237 12.1 239 33.8
2010-06-23 13:05:40 51°30.138 2°43.247 237.3 12 238 31.4
2010-06-23 13:06:41 51°30.031 2°42.966 237.3 12.1 238 31.3
2010-06-23 13:07:40 51°29.929 2°42.692 237.2 12.2 240 35
2010-06-23 13:08:40 51°29.825 2°42.413 237.2 12.3 239 34.9
2010-06-23 13:09:40 51°29.72 2°42.133 237.2 12.2 239 31.4
2010-06-23 13:10:41 51°29.615 2°41.846 237.6 12.3 239 34.1
2010-06-23 13:11:40 51°29.514 2°41.569 237.9 12.3 240 33.3
2010-06-23 13:12:40 51°29.416 2°41.28 239.5 12.3 242 33.4
2010-06-23 13:13:41 51°29.316 2°40.987 239.3 12.3 241 33.3
2010-06-23 13:14:44 51°29.215 2°40.686 239.6 12.3 242 32.7
2010-06-23 13:15:44 51°29.118 2°40.395 239.7 12.4 242 33.4
2010-06-23 13:16:44 51°29.019 2°40.106 239.1 12.4 241 34.2
2010-06-23 13:17:44 51°28.919 2°39.816 239.4 12.5 241 37.5
2010-06-23 13:18:44 51°28.82 2°39.521 239.3 12.5 241 34.5
2010-06-23 13:19:44 51°28.718 2°39.231 237.6 12.3 238 36.6
2010-06-23 13:20:44 51°28.614 2°38.954 240.2 12.1 239 38.8
2010-06-23 13:21:44 51°28.477 2°38.742 203.3 11.7 191 38.3
2010-06-23 13:22:44 51°28.29 2°38.895 146.7 13.8 141 37.9
2010-06-23 13:23:44 51°28.116 2°39.129 143.3 13.7 141 34.3
2010-06-23 13:24:44 51°27.942 2°39.365 143.8 13.7 140 34.3
2010-06-23 13:25:44 51°27.756 2°39.57 154.2 13.6 150 32.8
2010-06-23 13:26:44 51°27.56 2°39.746 155.4 13.5 151 32.7
2010-06-23 13:27:44 51°27.363 2°39.925 154.4 13.6 150 34.3
2010-06-23 13:28:44 51°27.168 2°40.105 154.4 13.6 151 34.5
2010-06-23 13:29:44 51°26.971 2°40.288 154.8 13.7 150 32
2010-06-23 13:30:44 51°26.773 2°40.468 154.4 13.6 149 30.9
2010-06-23 13:31:44 51°26.577 2°40.647 154.7 13.5 150 30.1
2010-06-23 13:32:44 51°26.382 2°40.827 154 13.6 150 31.2
2010-06-23 13:33:44 51°26.184 2°41.007 154.4 13.7 150 30.3
2010-06-23 13:34:44 51°25.987 2°41.189 154.4 13.6 151 28.5
2010-06-23 13:35:44 51°25.79 2°41.364 154.1 13.5 151 26
2010-06-23 13:36:44 51°25.594 2°41.543 154.1 13.6 151 27.3
2010-06-23 13:37:44 51°25.398 2°41.717 154.4 13.5 151 26.2
2010-06-23 13:38:44 51°25.203 2°41.894 154 13.5 151 25.3
2010-06-23 13:39:44 51°25.006 2°42.072 153.9 13.5 150 25.9
2010-06-23 13:40:44 51°24.809 2°42.247 154.5 13.6 151 25.7
2010-06-23 13:41:44 51°24.615 2°42.431 149.7 13.6 146 25
2010-06-23 13:42:44 51°24.446 2°42.675 137.8 13.8 135 22.2
2010-06-23 13:43:44 51°24.284 2°42.935 138.1 13.7 137 23.5
2010-06-23 13:44:44 51°24.129 2°43.204 133.2 13.8 131 21.5
2010-06-23 13:45:44 51°23.977 2°43.48 133 13.7 133 26.7
2010-06-23 13:46:44 51°23.825 2°43.748 133.8 13.5 133 25.1
2010-06-23 13:47:44 51°23.672 2°44.014 134.1 13.5 134 27.1
2010-06-23 13:48:44 51°23.507 2°44.26 139.4 13.6 139 27.2
2010-06-23 13:49:44 51°23.336 2°44.499 142.3 13.7 142 27.2
2010-06-23 13:50:44 51°23.156 2°44.723 144.1 13.7 143 25.9
2010-06-23 13:51:44 51°22.972 2°44.938 147.8 13.7 146 26.5
2010-06-23 13:52:44 51°22.776 2°45.123 152.5 13.7 152 26.7
2010-06-23 13:53:44 51°22.569 2°45.273 162.8 13.6 163 24.8
2010-06-23 13:54:44 51°22.346 2°45.34 172 13.6 171 23.7
2010-06-23 13:55:44 51°22.125 2°45.4 171.1 13.5 170 22.1
2010-06-23 13:56:44 51°21.903 2°45.465 170 13.5 170 21.6
2010-06-23 13:57:44 51°21.683 2°45.529 169.6 13.3 170 22.8
2010-06-23 13:58:44 51°21.464 2°45.592 169.7 13.4 170 25.2
2010-06-23 13:59:44 51°21.245 2°45.656 169.3 13.4 169 26.1
2010-06-23 14:00:44 51°21.024 2°45.718 170.2 13.5 171 25.5
2010-06-23 14:01:44 51°20.807 2°45.807 163.8 13.5 165 23.2
2010-06-23 14:02:44 51°20.593 2°45.903 163 13.2 161 21.8
2010-06-23 14:03:44 51°20.405 2°46.082 143.2 13.2 144 19.8
2010-06-23 14:04:44 51°20.23 2°46.294 142.8 13.3 144 15.7
2010-06-23 14:05:44 51°20.05 2°46.496 146 13.3 149 14
2010-06-23 14:06:44 51°19.857 2°46.674 149.6 13.4 150 18.2
2010-06-23 14:07:44 51°19.663 2°46.851 148.8 13.5 150 20.7
2010-06-23 14:08:44 51°19.468 2°47.028 149.1 13.6 150 21.2
2010-06-23 14:09:44 51°19.273 2°47.206 149 13.5 150 21.1
2010-06-23 14:10:44 51°19.077 2°47.381 149.9 13.5 151 19.7
2010-06-23 14:11:44 51°18.886 2°47.567 142.7 13.3 140 18.6
2010-06-23 14:12:44 51°18.766 2°47.852 111.1 13.1 111 15.5
2010-06-23 14:13:44 51°18.706 2°48.186 105.2 13.1 106 13.8
2010-06-23 14:14:44 51°18.625 2°48.507 116.3 13.1 120 12.1
2010-06-23 14:15:44 51°18.508 2°48.795 121.3 12.9 120 10.8
2010-06-23 14:17:24 51°18.327 2°49.288 119.2 13.1 120 11.1
2010-06-23 14:18:59 51°18.152 2°49.768 119.2 13.3 119 13.4
2010-06-23 14:19:59 51°18.042 2°50.073 119.1 13.2 120 13.4
2010-06-23 14:20:59 51°17.935 2°50.377 117.3 13 117 12.6
2010-06-23 14:21:59 51°17.833 2°50.684 117.2 13 118 11.7
2010-06-23 14:22:59 51°17.729 2°50.989 117.1 13 118 10.2
2010-06-23 14:23:59 51°17.626 2°51.291 117.2 12.9 119 9.2
2010-06-23 14:24:59 51°17.523 2°51.594 117.1 13 119 9.5
2010-06-23 14:25:59 51°17.425 2°51.905 115 13.1 117 10.1
2010-06-23 14:26:59 51°17.283 2°52.17 137.7 13.3 140 10.8
2010-06-23 14:27:59 51°17.098 2°52.358 147.6 13.2 150 9.7
2010-06-23 14:28:59 51°16.91 2°52.536 147.1 13.3 149 9.3
2010-06-23 14:29:59 51°16.72 2°52.716 146.9 13.4 149 9.9
2010-06-23 14:30:59 51°16.527 2°52.897 147.2 13.4 149 11.1
2010-06-23 14:31:59 51°16.336 2°53.083 145.4 13.4 148 11.4
2010-06-23 14:32:59 51°16.141 2°53.257 149.9 13.4 153 11.1
2010-06-23 14:33:59 51°15.942 2°53.415 150.8 13.4 154 11
2010-06-23 14:34:59 51°15.743 2°53.579 146.5 13.5 151 10.6
2010-06-23 14:36:00 51°15.553 2°53.773 140.3 12.9 143 -999
2010-06-23 14:37:00 51°15.388 2°53.967 140.3 11.9 143 10.2
2010-06-23 14:37:59 51°15.233 2°54.148 141.4 11.7 143 9.9
2010-06-23 14:38:59 51°15.075 2°54.335 140.9 11.8 143 9.3
2010-06-23 14:39:59 51°14.914 2°54.522 141.8 12 145 10.1
2010-06-23 14:40:59 51°14.749 2°54.707 140.6 12.2 146 11.1
2010-06-23 14:41:59 51°14.593 2°54.872 141.6 9.5 149 11.4
2010-06-23 14:42:59 51°14.48 2°54.996 132.8 7.7 135 9.9
2010-06-23 14:43:59 51°14.382 2°55.138 139.3 8.2 140 9.7
2010-06-23 14:44:59 51°14.272 2°55.277 142.3 8.1 143 10
2010-06-23 14:46:00 51°14.175 2°55.375 149.8 6.1 149 -999
2010-06-23 14:47:02 51°14.088 2°55.443 156.5 5.4 157 10.1
2010-06-23 14:48:00 51°14.009 2°55.498 156.5 5.4 156 10.2
2010-06-23 14:48:59 51°13.933 2°55.548 157.3 4.6 157 10.4
2010-06-23 14:49:59 51°13.872 2°55.594 155.3 3.5 154 9.7
2010-06-23 14:51:02 51°13.824 2°55.634 154.2 2.8 151 -999
2010-06-23 14:52:02 51°13.778 2°55.685 139.4 4.2 139 -999
2010-06-23 14:53:02 51°13.722 2°55.784 127.7 5.6 127 11.2
2010-06-23 14:54:00 51°13.679 2°55.888 116.1 4.1 112 7.6
2010-06-23 14:55:03 51°13.662 2°55.955 124.6 0.6 125 -999